sensor_id;sensor_type;location;lat;lon;timestamp;temperature;humidity
22098;DHT22;11215;51.938;8.464;2023-02-15T00:01:37;6.80;65.80
22098;DHT22;11215;51.938;8.464;2023-02-15T00:04:04;6.80;65.80
22098;DHT22;11215;51.938;8.464;2023-02-15T00:06:31;6.80;65.80
22098;DHT22;11215;51.938;8.464;2023-02-15T00:08:57;6.80;65.70
22098;DHT22;11215;51.938;8.464;2023-02-15T00:11:23;6.80;65.80
22098;DHT22;11215;51.938;8.464;2023-02-15T00:14:37;6.70;65.70
22098;DHT22;11215;51.938;8.464;2023-02-15T00:17:03;6.70;65.80
22098;DHT22;11215;51.938;8.464;2023-02-15T00:19:29;6.70;65.70
22098;DHT22;11215;51.938;8.464;2023-02-15T00:21:54;6.70;65.70
22098;DHT22;11215;51.938;8.464;2023-02-15T00:24:21;6.70;65.80
22098;DHT22;11215;51.938;8.464;2023-02-15T00:26:48;6.60;65.70
22098;DHT22;11215;51.938;8.464;2023-02-15T00:29:15;6.70;65.70
22098;DHT22;11215;51.938;8.464;2023-02-15T00:31:41;6.60;65.60
22098;DHT22;11215;51.938;8.464;2023-02-15T00:34:11;6.60;65.70
22098;DHT22;11215;51.938;8.464;2023-02-15T00:36:38;6.60;65.70
22098;DHT22;11215;51.938;8.464;2023-02-15T00:39:04;6.50;65.70
22098;DHT22;11215;51.938;8.464;2023-02-15T00:41:31;6.50;65.70
22098;DHT22;11215;51.938;8.464;2023-02-15T00:43:57;6.50;65.70
22098;DHT22;11215;51.938;8.464;2023-02-15T00:46:23;6.50;65.70
22098;DHT22;11215;51.938;8.464;2023-02-15T00:48:48;6.40;65.70
22098;DHT22;11215;51.938;8.464;2023-02-15T00:51:14;6.40;65.80
22098;DHT22;11215;51.938;8.464;2023-02-15T00:53:40;6.40;65.80
22098;DHT22;11215;51.938;8.464;2023-02-15T00:56:06;6.40;65.80
22098;DHT22;11215;51.938;8.464;2023-02-15T00:58:32;6.40;65.80
22098;DHT22;11215;51.938;8.464;2023-02-15T01:01:08;6.40;65.90
22098;DHT22;11215;51.938;8.464;2023-02-15T01:03:34;6.30;65.80
22098;DHT22;11215;51.938;8.464;2023-02-15T01:06:00;6.30;65.80
22098;DHT22;11215;51.938;8.464;2023-02-15T01:08:26;6.30;65.90
22098;DHT22;11215;51.938;8.464;2023-02-15T01:10:52;6.20;65.90
22098;DHT22;11215;51.938;8.464;2023-02-15T01:13:18;6.20;65.80
22098;DHT22;11215;51.938;8.464;2023-02-15T01:15:45;6.20;65.90
22098;DHT22;11215;51.938;8.464;2023-02-15T01:18:11;6.20;66.00
22098;DHT22;11215;51.938;8.464;2023-02-15T01:20:39;6.20;66.00
22098;DHT22;11215;51.938;8.464;2023-02-15T01:23:07;6.10;66.00
22098;DHT22;11215;51.938;8.464;2023-02-15T01:25:34;6.10;65.90
22098;DHT22;11215;51.938;8.464;2023-02-15T01:28:00;6.10;66.00
22098;DHT22;11215;51.938;8.464;2023-02-15T01:30:25;6.00;65.90
22098;DHT22;11215;51.938;8.464;2023-02-15T01:32:51;6.00;66.00
22098;DHT22;11215;51.938;8.464;2023-02-15T01:35:17;6.00;66.90
22098;DHT22;11215;51.938;8.464;2023-02-15T01:37:43;5.90;66.10
22098;DHT22;11215;51.938;8.464;2023-02-15T01:40:13;5.90;66.20
22098;DHT22;11215;51.938;8.464;2023-02-15T01:42:39;5.90;66.30
22098;DHT22;11215;51.938;8.464;2023-02-15T01:47:45;5.90;66.50
22098;DHT22;11215;51.938;8.464;2023-02-15T01:50:20;5.90;66.50
22098;DHT22;11215;51.938;8.464;2023-02-15T01:52:58;5.80;66.50
22098;DHT22;11215;51.938;8.464;2023-02-15T01:55:31;5.80;66.60
22098;DHT22;11215;51.938;8.464;2023-02-15T01:57:58;5.80;66.50
22098;DHT22;11215;51.938;8.464;2023-02-15T02:00:28;5.80;66.50
22098;DHT22;11215;51.938;8.464;2023-02-15T02:02:55;5.70;66.50
22098;DHT22;11215;51.938;8.464;2023-02-15T02:05:22;5.70;66.60
22098;DHT22;11215;51.938;8.464;2023-02-15T02:07:49;5.70;66.70
22098;DHT22;11215;51.938;8.464;2023-02-15T02:10:20;5.70;66.80
22098;DHT22;11215;51.938;8.464;2023-02-15T02:12:47;5.70;66.80
22098;DHT22;11215;51.938;8.464;2023-02-15T02:15:15;5.70;66.70
22098;DHT22;11215;51.938;8.464;2023-02-15T02:31:11;5.60;66.80
22098;DHT22;11215;51.938;8.464;2023-02-15T02:33:59;5.60;67.00
22098;DHT22;11215;51.938;8.464;2023-02-15T02:36:46;5.50;67.00
22098;DHT22;11215;51.938;8.464;2023-02-15T02:42:09;5.50;67.00
22098;DHT22;11215;51.938;8.464;2023-02-15T02:44:44;5.50;66.90
22098;DHT22;11215;51.938;8.464;2023-02-15T02:49:52;5.40;66.90
22098;DHT22;11215;51.938;8.464;2023-02-15T02:52:36;5.40;66.90
22098;DHT22;11215;51.938;8.464;2023-02-15T02:57:40;5.40;66.90
22098;DHT22;11215;51.938;8.464;2023-02-15T03:00:09;5.40;66.90
22098;DHT22;11215;51.938;8.464;2023-02-15T03:02:38;5.30;66.80
22098;DHT22;11215;51.938;8.464;2023-02-15T03:05:11;5.30;66.90
22098;DHT22;11215;51.938;8.464;2023-02-15T03:07:39;5.30;67.00
22098;DHT22;11215;51.938;8.464;2023-02-15T03:10:07;5.30;67.10
22098;DHT22;11215;51.938;8.464;2023-02-15T03:12:39;5.30;67.20
22098;DHT22;11215;51.938;8.464;2023-02-15T03:17:34;5.20;67.30
22098;DHT22;11215;51.938;8.464;2023-02-15T03:20:20;5.20;67.30
22098;DHT22;11215;51.938;8.464;2023-02-15T03:23:12;5.20;67.30
22098;DHT22;11215;51.938;8.464;2023-02-15T03:25:44;5.20;67.50
22098;DHT22;11215;51.938;8.464;2023-02-15T03:28:15;5.20;67.40
22098;DHT22;11215;51.938;8.464;2023-02-15T03:30:45;5.10;67.30
22098;DHT22;11215;51.938;8.464;2023-02-15T03:33:13;5.10;67.40
22098;DHT22;11215;51.938;8.464;2023-02-15T03:35:49;5.10;67.40
22098;DHT22;11215;51.938;8.464;2023-02-15T03:38:20;5.10;67.30
22098;DHT22;11215;51.938;8.464;2023-02-15T03:40:53;5.10;67.30
22098;DHT22;11215;51.938;8.464;2023-02-15T03:43:56;5.10;67.40
22098;DHT22;11215;51.938;8.464;2023-02-15T03:49:39;5.10;67.50
22098;DHT22;11215;51.938;8.464;2023-02-15T03:51:42;5.00;67.50
22098;DHT22;11215;51.938;8.464;2023-02-15T03:54:12;5.10;67.60
22098;DHT22;11215;51.938;8.464;2023-02-15T03:56:59;5.00;67.50
22098;DHT22;11215;51.938;8.464;2023-02-15T03:59:44;5.00;67.40
22098;DHT22;11215;51.938;8.464;2023-02-15T04:02:35;5.00;67.50
22098;DHT22;11215;51.938;8.464;2023-02-15T04:05:04;5.00;67.70
22098;DHT22;11215;51.938;8.464;2023-02-15T04:07:29;5.00;67.70
22098;DHT22;11215;51.938;8.464;2023-02-15T04:09:55;5.00;67.80
22098;DHT22;11215;51.938;8.464;2023-02-15T04:12:39;5.00;67.90
22098;DHT22;11215;51.938;8.464;2023-02-15T04:15:05;5.00;67.90
22098;DHT22;11215;51.938;8.464;2023-02-15T04:17:49;5.00;68.00
22098;DHT22;11215;51.938;8.464;2023-02-15T04:20:15;5.00;68.10
22098;DHT22;11215;51.938;8.464;2023-02-15T04:22:59;5.00;68.10
22098;DHT22;11215;51.938;8.464;2023-02-15T04:25:43;5.00;67.90
22098;DHT22;11215;51.938;8.464;2023-02-15T04:28:09;5.00;67.80
22098;DHT22;11215;51.938;8.464;2023-02-15T04:30:34;5.00;67.80
22098;DHT22;11215;51.938;8.464;2023-02-15T04:33:00;5.00;67.80
22098;DHT22;11215;51.938;8.464;2023-02-15T04:35:26;5.00;67.80
22098;DHT22;11215;51.938;8.464;2023-02-15T04:37:52;5.00;67.90
22098;DHT22;11215;51.938;8.464;2023-02-15T04:40:17;5.00;67.90
22098;DHT22;11215;51.938;8.464;2023-02-15T04:42:43;5.00;67.90
22098;DHT22;11215;51.938;8.464;2023-02-15T04:45:09;4.90;67.90
22098;DHT22;11215;51.938;8.464;2023-02-15T04:47:35;4.90;67.90
22098;DHT22;11215;51.938;8.464;2023-02-15T04:50:00;4.90;67.90
22098;DHT22;11215;51.938;8.464;2023-02-15T04:52:26;4.90;67.90
22098;DHT22;11215;51.938;8.464;2023-02-15T04:54:52;5.00;68.10
22098;DHT22;11215;51.938;8.464;2023-02-15T04:57:20;4.90;68.00
22098;DHT22;11215;51.938;8.464;2023-02-15T04:59:46;4.90;68.10
22098;DHT22;11215;51.938;8.464;2023-02-15T05:02:12;5.00;68.10
22098;DHT22;11215;51.938;8.464;2023-02-15T05:04:37;4.90;68.00
22098;DHT22;11215;51.938;8.464;2023-02-15T05:07:03;4.90;67.90
22098;DHT22;11215;51.938;8.464;2023-02-15T05:09:29;4.90;67.90
22098;DHT22;11215;51.938;8.464;2023-02-15T05:11:57;5.00;67.90
22098;DHT22;11215;51.938;8.464;2023-02-15T05:14:23;4.90;67.90
22098;DHT22;11215;51.938;8.464;2023-02-15T05:16:48;4.90;67.70
22098;DHT22;11215;51.938;8.464;2023-02-15T05:19:14;4.90;67.60
22098;DHT22;11215;51.938;8.464;2023-02-15T05:21:40;4.90;67.60
22098;DHT22;11215;51.938;8.464;2023-02-15T05:24:05;4.90;67.60
22098;DHT22;11215;51.938;8.464;2023-02-15T05:26:51;4.90;67.60
22098;DHT22;11215;51.938;8.464;2023-02-15T05:29:35;4.80;67.40
22098;DHT22;11215;51.938;8.464;2023-02-15T05:32:01;4.80;67.20
22098;DHT22;11215;51.938;8.464;2023-02-15T05:34:27;4.80;67.30
22098;DHT22;11215;51.938;8.464;2023-02-15T05:36:53;4.80;67.30
22098;DHT22;11215;51.938;8.464;2023-02-15T05:39:18;4.70;67.30
22098;DHT22;11215;51.938;8.464;2023-02-15T05:41:44;4.70;67.30
22098;DHT22;11215;51.938;8.464;2023-02-15T05:44:10;4.70;67.40
22098;DHT22;11215;51.938;8.464;2023-02-15T05:46:35;4.70;67.30
22098;DHT22;11215;51.938;8.464;2023-02-15T05:49:01;4.60;67.20
22098;DHT22;11215;51.938;8.464;2023-02-15T05:51:27;4.60;67.30
22098;DHT22;11215;51.938;8.464;2023-02-15T05:53:52;4.60;67.10
22098;DHT22;11215;51.938;8.464;2023-02-15T05:56:18;4.60;67.30
22098;DHT22;11215;51.938;8.464;2023-02-15T05:58:43;4.50;67.30
22098;DHT22;11215;51.938;8.464;2023-02-15T06:01:13;4.50;67.30
22098;DHT22;11215;51.938;8.464;2023-02-15T06:03:39;4.40;67.30
22098;DHT22;11215;51.938;8.464;2023-02-15T06:06:05;4.40;67.40
22098;DHT22;11215;51.938;8.464;2023-02-15T06:08:32;4.40;67.60
22098;DHT22;11215;51.938;8.464;2023-02-15T06:10:58;4.30;67.90
22098;DHT22;11215;51.938;8.464;2023-02-15T06:16:46;4.30;68.40
22098;DHT22;11215;51.938;8.464;2023-02-15T06:19:12;4.30;68.00
22098;DHT22;11215;51.938;8.464;2023-02-15T06:21:38;4.20;67.90
22098;DHT22;11215;51.938;8.464;2023-02-15T06:24:03;4.30;68.10
22098;DHT22;11215;51.938;8.464;2023-02-15T06:26:32;4.20;68.10
22098;DHT22;11215;51.938;8.464;2023-02-15T06:28:58;4.20;68.30
22098;DHT22;11215;51.938;8.464;2023-02-15T06:31:23;4.20;68.20
22098;DHT22;11215;51.938;8.464;2023-02-15T06:33:50;4.20;68.10
22098;DHT22;11215;51.938;8.464;2023-02-15T06:36:15;4.20;68.10
22098;DHT22;11215;51.938;8.464;2023-02-15T06:38:41;4.20;68.20
22098;DHT22;11215;51.938;8.464;2023-02-15T06:41:06;4.20;68.30
22098;DHT22;11215;51.938;8.464;2023-02-15T06:43:32;4.20;68.20
22098;DHT22;11215;51.938;8.464;2023-02-15T06:45:59;4.20;68.20
22098;DHT22;11215;51.938;8.464;2023-02-15T06:48:25;4.20;68.30
22098;DHT22;11215;51.938;8.464;2023-02-15T06:50:51;4.20;68.50
22098;DHT22;11215;51.938;8.464;2023-02-15T06:53:17;4.20;68.60
22098;DHT22;11215;51.938;8.464;2023-02-15T06:55:42;4.20;68.60
22098;DHT22;11215;51.938;8.464;2023-02-15T06:58:08;4.20;68.80
22098;DHT22;11215;51.938;8.464;2023-02-15T07:00:34;4.20;68.90
22098;DHT22;11215;51.938;8.464;2023-02-15T07:02:59;4.20;68.90
22098;DHT22;11215;51.938;8.464;2023-02-15T07:05:27;4.20;68.80
22098;DHT22;11215;51.938;8.464;2023-02-15T07:07:57;4.20;68.90
22098;DHT22;11215;51.938;8.464;2023-02-15T07:10:23;4.30;68.90
22098;DHT22;11215;51.938;8.464;2023-02-15T07:12:48;4.30;69.10
22098;DHT22;11215;51.938;8.464;2023-02-15T07:15:16;4.30;69.10
22098;DHT22;11215;51.938;8.464;2023-02-15T07:17:42;4.30;69.10
22098;DHT22;11215;51.938;8.464;2023-02-15T07:20:15;4.30;69.10
22098;DHT22;11215;51.938;8.464;2023-02-15T07:22:41;4.30;69.10
22098;DHT22;11215;51.938;8.464;2023-02-15T07:25:09;4.30;69.10
22098;DHT22;11215;51.938;8.464;2023-02-15T07:27:35;4.40;69.20
22098;DHT22;11215;51.938;8.464;2023-02-15T07:30:02;4.40;69.20
22098;DHT22;11215;51.938;8.464;2023-02-15T07:32:32;4.40;69.20
22098;DHT22;11215;51.938;8.464;2023-02-15T07:34:58;4.40;69.20
22098;DHT22;11215;51.938;8.464;2023-02-15T07:37:24;4.40;69.20
22098;DHT22;11215;51.938;8.464;2023-02-15T07:39:50;4.40;69.20
22098;DHT22;11215;51.938;8.464;2023-02-15T07:42:16;4.50;69.20
22098;DHT22;11215;51.938;8.464;2023-02-15T07:44:43;4.50;69.20
22098;DHT22;11215;51.938;8.464;2023-02-15T07:47:08;4.50;69.20
22098;DHT22;11215;51.938;8.464;2023-02-15T07:49:34;4.60;69.40
22098;DHT22;11215;51.938;8.464;2023-02-15T07:52:03;4.60;69.40
22098;DHT22;11215;51.938;8.464;2023-02-15T07:54:29;4.60;69.50
22098;DHT22;11215;51.938;8.464;2023-02-15T07:56:54;4.70;69.50
22098;DHT22;11215;51.938;8.464;2023-02-15T07:59:20;4.70;69.60
22098;DHT22;11215;51.938;8.464;2023-02-15T08:01:46;4.70;69.60
22098;DHT22;11215;51.938;8.464;2023-02-15T08:04:11;4.80;69.80
22098;DHT22;11215;51.938;8.464;2023-02-15T08:06:37;4.80;69.70
22098;DHT22;11215;51.938;8.464;2023-02-15T08:09:05;4.90;69.70
22098;DHT22;11215;51.938;8.464;2023-02-15T08:11:33;4.90;69.60
22098;DHT22;11215;51.938;8.464;2023-02-15T08:14:06;5.00;69.60
22098;DHT22;11215;51.938;8.464;2023-02-15T08:19:22;5.10;69.60
22098;DHT22;11215;51.938;8.464;2023-02-15T08:28:33;5.30;69.60
22098;DHT22;11215;51.938;8.464;2023-02-15T08:31:10;5.40;69.40
22098;DHT22;11215;51.938;8.464;2023-02-15T08:33:38;5.50;69.60
22098;DHT22;11215;51.938;8.464;2023-02-15T08:36:28;5.50;69.50
22098;DHT22;11215;51.938;8.464;2023-02-15T08:38:57;5.60;69.50
22098;DHT22;11215;51.938;8.464;2023-02-15T08:41:25;5.60;69.30
22098;DHT22;11215;51.938;8.464;2023-02-15T08:43:53;5.70;69.20
22098;DHT22;11215;51.938;8.464;2023-02-15T08:46:21;5.80;69.10
22098;DHT22;11215;51.938;8.464;2023-02-15T08:48:47;5.80;69.10
22098;DHT22;11215;51.938;8.464;2023-02-15T08:51:15;5.90;69.10
22098;DHT22;11215;51.938;8.464;2023-02-15T08:53:44;5.90;69.10
22098;DHT22;11215;51.938;8.464;2023-02-15T08:56:10;6.00;69.10
22098;DHT22;11215;51.938;8.464;2023-02-15T08:58:37;6.10;69.10
22098;DHT22;11215;51.938;8.464;2023-02-15T09:01:30;6.20;69.20
22098;DHT22;11215;51.938;8.464;2023-02-15T09:04:01;6.30;69.00
22098;DHT22;11215;51.938;8.464;2023-02-15T09:06:28;6.40;69.00
22098;DHT22;11215;51.938;8.464;2023-02-15T09:08:54;6.50;69.00
22098;DHT22;11215;51.938;8.464;2023-02-15T09:11:25;6.60;69.00
22098;DHT22;11215;51.938;8.464;2023-02-15T09:14:03;6.70;68.80
22098;DHT22;11215;51.938;8.464;2023-02-15T09:16:31;6.80;68.60
22098;DHT22;11215;51.938;8.464;2023-02-15T09:18:58;6.90;68.50
22098;DHT22;11215;51.938;8.464;2023-02-15T09:21:25;7.00;68.50
22098;DHT22;11215;51.938;8.464;2023-02-15T09:23:56;7.10;68.40
22098;DHT22;11215;51.938;8.464;2023-02-15T09:26:23;7.20;68.30
22098;DHT22;11215;51.938;8.464;2023-02-15T09:28:53;7.30;68.20
22098;DHT22;11215;51.938;8.464;2023-02-15T09:31:22;7.30;68.00
22098;DHT22;11215;51.938;8.464;2023-02-15T09:33:49;7.40;68.00
22098;DHT22;11215;51.938;8.464;2023-02-15T09:36:23;7.50;67.90
22098;DHT22;11215;51.938;8.464;2023-02-15T09:38:58;7.60;67.70
22098;DHT22;11215;51.938;8.464;2023-02-15T09:44:20;7.70;68.40
22098;DHT22;11215;51.938;8.464;2023-02-15T10:00:29;8.20;66.50
22098;DHT22;11215;51.938;8.464;2023-02-15T10:17:03;8.60;66.50
22098;DHT22;11215;51.938;8.464;2023-02-15T10:19:52;8.80;66.20
22098;DHT22;11215;51.938;8.464;2023-02-15T10:27:48;9.00;66.00
22098;DHT22;11215;51.938;8.464;2023-02-15T10:30:31;9.10;66.30
22098;DHT22;11215;51.938;8.464;2023-02-15T10:33:04;9.20;66.20
22098;DHT22;11215;51.938;8.464;2023-02-15T10:47:12;9.70;65.40
22098;DHT22;11215;51.938;8.464;2023-02-15T10:55:18;9.90;65.40
22098;DHT22;11215;51.938;8.464;2023-02-15T10:57:59;10.00;64.60
22098;DHT22;11215;51.938;8.464;2023-02-15T11:08:35;10.30;63.60
22098;DHT22;11215;51.938;8.464;2023-02-15T11:11:08;10.40;63.80
22098;DHT22;11215;51.938;8.464;2023-02-15T11:13:43;10.50;63.50
22098;DHT22;11215;51.938;8.464;2023-02-15T11:16:13;10.50;63.40
22098;DHT22;11215;51.938;8.464;2023-02-15T11:18:48;10.60;64.00
22098;DHT22;11215;51.938;8.464;2023-02-15T11:21:31;10.70;63.70
22098;DHT22;11215;51.938;8.464;2023-02-15T11:24:12;10.70;63.80
22098;DHT22;11215;51.938;8.464;2023-02-15T11:26:45;10.80;63.40
22098;DHT22;11215;51.938;8.464;2023-02-15T11:32:02;10.90;62.70
22098;DHT22;11215;51.938;8.464;2023-02-15T11:34:33;11.00;63.10
22098;DHT22;11215;51.938;8.464;2023-02-15T11:37:08;11.10;63.00
22098;DHT22;11215;51.938;8.464;2023-02-15T11:39:35;11.10;62.60
22098;DHT22;11215;51.938;8.464;2023-02-15T11:42:14;11.20;62.70
22098;DHT22;11215;51.938;8.464;2023-02-15T11:47:15;11.30;62.30
22098;DHT22;11215;51.938;8.464;2023-02-15T11:49:40;11.40;62.90
22098;DHT22;11215;51.938;8.464;2023-02-15T11:52:10;11.40;63.10
22098;DHT22;11215;51.938;8.464;2023-02-15T11:54:41;11.50;62.70
22098;DHT22;11215;51.938;8.464;2023-02-15T11:57:33;11.50;62.50
22098;DHT22;11215;51.938;8.464;2023-02-15T12:00:19;11.60;61.60
22098;DHT22;11215;51.938;8.464;2023-02-15T12:02:50;11.60;61.90
22098;DHT22;11215;51.938;8.464;2023-02-15T12:05:20;11.70;61.90
22098;DHT22;11215;51.938;8.464;2023-02-15T12:08:00;11.70;61.70
22098;DHT22;11215;51.938;8.464;2023-02-15T12:10:34;11.80;61.40
22098;DHT22;11215;51.938;8.464;2023-02-15T12:13:17;11.90;62.00
22098;DHT22;11215;51.938;8.464;2023-02-15T12:15:46;11.90;60.60
22098;DHT22;11215;51.938;8.464;2023-02-15T12:18:35;12.00;61.20
22098;DHT22;11215;51.938;8.464;2023-02-15T12:21:12;12.00;60.50
22098;DHT22;11215;51.938;8.464;2023-02-15T12:24:03;12.10;61.20
22098;DHT22;11215;51.938;8.464;2023-02-15T12:26:31;12.10;60.00
22098;DHT22;11215;51.938;8.464;2023-02-15T12:29:15;12.10;61.10
22098;DHT22;11215;51.938;8.464;2023-02-15T12:31:44;12.20;60.10
22098;DHT22;11215;51.938;8.464;2023-02-15T12:37:28;12.30;60.80
22098;DHT22;11215;51.938;8.464;2023-02-15T12:39:58;12.40;59.90
22098;DHT22;11215;51.938;8.464;2023-02-15T12:42:26;12.40;61.10
22098;DHT22;11215;51.938;8.464;2023-02-15T12:45:04;12.50;60.90
22098;DHT22;11215;51.938;8.464;2023-02-15T12:47:44;12.50;59.80
22098;DHT22;11215;51.938;8.464;2023-02-15T12:50:23;12.60;60.60
22098;DHT22;11215;51.938;8.464;2023-02-15T12:53:13;12.60;59.70
22098;DHT22;11215;51.938;8.464;2023-02-15T12:55:56;12.70;59.70
22098;DHT22;11215;51.938;8.464;2023-02-15T12:58:24;12.70;59.90
22098;DHT22;11215;51.938;8.464;2023-02-15T13:03:38;12.80;59.20
22098;DHT22;11215;51.938;8.464;2023-02-15T13:06:05;12.90;60.10
22098;DHT22;11215;51.938;8.464;2023-02-15T13:08:39;12.90;60.10
22098;DHT22;11215;51.938;8.464;2023-02-15T13:11:11;13.00;59.80
22098;DHT22;11215;51.938;8.464;2023-02-15T13:16:41;13.00;59.10
22098;DHT22;11215;51.938;8.464;2023-02-15T13:19:32;13.10;59.60
22098;DHT22;11215;51.938;8.464;2023-02-15T13:21:56;13.20;59.50
22098;DHT22;11215;51.938;8.464;2023-02-15T13:24:28;13.20;59.70
22098;DHT22;11215;51.938;8.464;2023-02-15T13:26:56;13.30;58.90
22098;DHT22;11215;51.938;8.464;2023-02-15T13:29:26;13.30;59.10
22098;DHT22;11215;51.938;8.464;2023-02-15T13:31:54;13.40;58.90
22098;DHT22;11215;51.938;8.464;2023-02-15T13:34:28;13.40;59.00
22098;DHT22;11215;51.938;8.464;2023-02-15T13:39:41;13.50;59.10
22098;DHT22;11215;51.938;8.464;2023-02-15T13:47:49;13.60;58.60
22098;DHT22;11215;51.938;8.464;2023-02-15T13:56:05;13.70;57.70
22098;DHT22;11215;51.938;8.464;2023-02-15T14:01:17;13.80;58.40
22098;DHT22;11215;51.938;8.464;2023-02-15T14:11:47;13.90;58.00
22098;DHT22;11215;51.938;8.464;2023-02-15T14:32:24;14.00;56.70
22098;DHT22;11215;51.938;8.464;2023-02-15T14:35:02;14.10;57.90
22098;DHT22;11215;51.938;8.464;2023-02-15T14:37:39;14.10;56.80
22098;DHT22;11215;51.938;8.464;2023-02-15T14:40:15;14.10;57.20
22098;DHT22;11215;51.938;8.464;2023-02-15T14:43:11;14.10;57.10
22098;DHT22;11215;51.938;8.464;2023-02-15T14:45:59;14.10;56.60
22098;DHT22;11215;51.938;8.464;2023-02-15T14:48:33;14.10;57.40
22098;DHT22;11215;51.938;8.464;2023-02-15T14:51:01;14.10;56.90
22098;DHT22;11215;51.938;8.464;2023-02-15T14:56:19;14.10;57.10
22098;DHT22;11215;51.938;8.464;2023-02-15T15:01:29;14.10;57.10
22098;DHT22;11215;51.938;8.464;2023-02-15T15:03:58;14.20;57.30
22098;DHT22;11215;51.938;8.464;2023-02-15T15:06:26;14.20;57.20
22098;DHT22;11215;51.938;8.464;2023-02-15T15:08:55;14.10;57.10
22098;DHT22;11215;51.938;8.464;2023-02-15T15:14:00;14.20;56.70
22098;DHT22;11215;51.938;8.464;2023-02-15T15:18:55;14.10;57.10
22098;DHT22;11215;51.938;8.464;2023-02-15T15:30:19;14.20;56.10
22098;DHT22;11215;51.938;8.464;2023-02-15T15:32:54;14.10;56.70
22098;DHT22;11215;51.938;8.464;2023-02-15T15:49:10;14.10;56.00
22098;DHT22;11215;51.938;8.464;2023-02-15T15:51:40;14.00;55.90
22098;DHT22;11215;51.938;8.464;2023-02-15T15:54:20;14.00;56.00
22098;DHT22;11215;51.938;8.464;2023-02-15T15:56:58;14.00;55.90
22098;DHT22;11215;51.938;8.464;2023-02-15T15:59:28;14.00;55.80
22098;DHT22;11215;51.938;8.464;2023-02-15T16:01:55;13.90;56.30
22098;DHT22;11215;51.938;8.464;2023-02-15T16:04:33;13.90;56.30
22098;DHT22;11215;51.938;8.464;2023-02-15T16:10:07;13.80;56.00
22098;DHT22;11215;51.938;8.464;2023-02-15T16:12:37;13.70;55.90
22098;DHT22;11215;51.938;8.464;2023-02-15T16:15:14;13.60;56.20
22098;DHT22;11215;51.938;8.464;2023-02-15T16:17:42;13.60;56.10
22098;DHT22;11215;51.938;8.464;2023-02-15T16:20:16;13.50;56.40
22098;DHT22;11215;51.938;8.464;2023-02-15T16:22:45;13.50;56.30
22098;DHT22;11215;51.938;8.464;2023-02-15T16:27:44;13.30;56.60
22098;DHT22;11215;51.938;8.464;2023-02-15T16:30:27;13.20;56.60
22098;DHT22;11215;51.938;8.464;2023-02-15T16:33:04;13.20;56.60
22098;DHT22;11215;51.938;8.464;2023-02-15T16:35:31;13.10;56.80
22098;DHT22;11215;51.938;8.464;2023-02-15T16:37:57;13.00;56.80
22098;DHT22;11215;51.938;8.464;2023-02-15T16:42:49;12.80;56.80
22098;DHT22;11215;51.938;8.464;2023-02-15T16:45:18;12.70;56.90
22098;DHT22;11215;51.938;8.464;2023-02-15T16:47:47;12.60;57.50
22098;DHT22;11215;51.938;8.464;2023-02-15T16:50:22;12.50;56.90
22098;DHT22;11215;51.938;8.464;2023-02-15T16:52:49;12.40;57.00
22098;DHT22;11215;51.938;8.464;2023-02-15T16:55:26;12.30;57.20
22098;DHT22;11215;51.938;8.464;2023-02-15T16:57:57;12.20;57.30
22098;DHT22;11215;51.938;8.464;2023-02-15T17:00:26;12.10;57.40
22098;DHT22;11215;51.938;8.464;2023-02-15T17:03:12;12.00;57.50
22098;DHT22;11215;51.938;8.464;2023-02-15T17:05:45;11.90;57.40
22098;DHT22;11215;51.938;8.464;2023-02-15T17:08:24;11.90;57.80
22098;DHT22;11215;51.938;8.464;2023-02-15T17:11:02;11.80;57.90
22098;DHT22;11215;51.938;8.464;2023-02-15T17:13:29;11.80;58.20
22098;DHT22;11215;51.938;8.464;2023-02-15T17:18:38;11.80;58.70
22098;DHT22;11215;51.938;8.464;2023-02-15T17:23:44;11.80;58.90
22098;DHT22;11215;51.938;8.464;2023-02-15T17:26:14;11.80;59.10
22098;DHT22;11215;51.938;8.464;2023-02-15T17:28:52;11.80;59.10
22098;DHT22;11215;51.938;8.464;2023-02-15T17:31:20;11.80;59.20
22098;DHT22;11215;51.938;8.464;2023-02-15T17:33:46;11.80;59.80
22098;DHT22;11215;51.938;8.464;2023-02-15T17:36:20;11.70;59.20
22098;DHT22;11215;51.938;8.464;2023-02-15T17:41:30;11.70;59.20
22098;DHT22;11215;51.938;8.464;2023-02-15T17:43:56;11.70;59.30
22098;DHT22;11215;51.938;8.464;2023-02-15T17:46:23;11.70;59.30
22098;DHT22;11215;51.938;8.464;2023-02-15T17:48:51;11.70;59.30
22098;DHT22;11215;51.938;8.464;2023-02-15T17:51:18;11.60;59.30
22098;DHT22;11215;51.938;8.464;2023-02-15T17:53:45;11.60;59.30
22098;DHT22;11215;51.938;8.464;2023-02-15T17:56:46;11.50;59.40
22098;DHT22;11215;51.938;8.464;2023-02-15T17:59:12;11.50;59.40
22098;DHT22;11215;51.938;8.464;2023-02-15T18:01:49;11.50;59.40
22098;DHT22;11215;51.938;8.464;2023-02-15T18:04:35;11.50;59.50
22098;DHT22;11215;51.938;8.464;2023-02-15T18:07:19;11.40;59.50
22098;DHT22;11215;51.938;8.464;2023-02-15T18:10:15;11.40;59.40
22098;DHT22;11215;51.938;8.464;2023-02-15T18:13:00;11.30;59.40
22098;DHT22;11215;51.938;8.464;2023-02-15T18:15:26;11.30;59.40
22098;DHT22;11215;51.938;8.464;2023-02-15T18:17:52;11.30;59.40
22098;DHT22;11215;51.938;8.464;2023-02-15T18:20:23;11.20;59.40
22098;DHT22;11215;51.938;8.464;2023-02-15T18:22:51;11.20;59.40
22098;DHT22;11215;51.938;8.464;2023-02-15T18:25:19;11.10;59.30
22098;DHT22;11215;51.938;8.464;2023-02-15T18:27:45;11.10;59.40
22098;DHT22;11215;51.938;8.464;2023-02-15T18:30:21;11.00;59.40
22098;DHT22;11215;51.938;8.464;2023-02-15T18:32:50;11.00;59.50
22098;DHT22;11215;51.938;8.464;2023-02-15T18:35:19;11.00;59.50
22098;DHT22;11215;51.938;8.464;2023-02-15T18:37:47;10.90;59.50
22098;DHT22;11215;51.938;8.464;2023-02-15T18:40:15;10.90;59.50
22098;DHT22;11215;51.938;8.464;2023-02-15T18:42:41;10.80;59.50
22098;DHT22;11215;51.938;8.464;2023-02-15T18:45:17;10.80;59.50
22098;DHT22;11215;51.938;8.464;2023-02-15T18:47:44;10.70;59.60
22098;DHT22;11215;51.938;8.464;2023-02-15T18:50:12;10.70;59.60
22098;DHT22;11215;51.938;8.464;2023-02-15T18:52:38;10.70;59.60
22098;DHT22;11215;51.938;8.464;2023-02-15T18:55:27;10.60;59.60
22098;DHT22;11215;51.938;8.464;2023-02-15T18:57:55;10.60;59.70
22098;DHT22;11215;51.938;8.464;2023-02-15T19:00:28;10.60;59.70
22098;DHT22;11215;51.938;8.464;2023-02-15T19:02:55;10.50;59.70
22098;DHT22;11215;51.938;8.464;2023-02-15T19:05:21;10.50;59.80
22098;DHT22;11215;51.938;8.464;2023-02-15T19:07:48;10.40;59.80
22098;DHT22;11215;51.938;8.464;2023-02-15T19:10:20;10.40;59.80
22098;DHT22;11215;51.938;8.464;2023-02-15T19:12:47;10.30;59.90
22098;DHT22;11215;51.938;8.464;2023-02-15T19:15:18;10.30;60.10
22098;DHT22;11215;51.938;8.464;2023-02-15T19:17:45;10.30;59.90
22098;DHT22;11215;51.938;8.464;2023-02-15T19:20:22;10.30;60.00
22098;DHT22;11215;51.938;8.464;2023-02-15T19:22:50;10.20;60.10
22098;DHT22;11215;51.938;8.464;2023-02-15T19:25:19;10.20;60.10
22098;DHT22;11215;51.938;8.464;2023-02-15T19:27:46;10.10;60.00
22098;DHT22;11215;51.938;8.464;2023-02-15T19:30:17;10.10;60.10
22098;DHT22;11215;51.938;8.464;2023-02-15T19:32:47;10.10;60.30